Time;durP1;ratioP1;P1;durP2;ratioP2;P2;SDS_P1;SDS_P2;PMS_P1;PMS_P2;Temp;Humidity;BMP_temperature;BMP_pressure;BME280_temperature;BME280_humidity;BME280_pressure;Samples;Min_cycle;Max_cycle;Signal;HPM_P1;HPM_P2
2023/07/01 00:00:14;;;;;;;5.53;2.20;;;;;;;17.23;100.00;100596.34;4927988;28;20062;-78
2023/07/01 00:02:53;;;;;;;5.72;2.33;;;;;;;17.25;100.00;100602.50;4963608;28;20039;-79
2023/07/01 00:05:20;;;;;;;11.75;2.03;;;;;;;17.23;100.00;100596.34;4956114;28;20043;-78
2023/07/01 00:07:48;;;;;;;6.78;1.73;;;;;;;17.22;100.00;100595.47;4949014;28;20049;-78
2023/07/01 00:10:15;;;;;;;3.50;1.70;;;;;;;17.23;100.00;100596.34;4933082;28;20055;-78
2023/07/01 00:12:45;;;;;;;5.00;1.70;;;;;;;17.21;100.00;100584.88;4977023;28;20044;-77
2023/07/01 00:15:13;;;;;;;6.63;1.92;;;;;;;17.20;100.00;100577.78;4916977;28;20059;-78
2023/07/01 00:17:42;;;;;;;7.18;1.85;;;;;;;17.20;100.00;100575.13;4960718;28;20051;-79
2023/07/01 00:20:10;;;;;;;9.75;2.10;;;;;;;17.20;100.00;100569.78;4960212;28;20530;-78
2023/07/01 00:22:38;;;;;;;6.97;2.05;;;;;;;17.19;100.00;100570.72;4937349;28;20047;-78
2023/07/01 00:25:06;;;;;;;13.38;2.05;;;;;;;17.20;100.00;100564.47;4963513;28;20061;-79
2023/07/01 00:27:35;;;;;;;3.28;1.42;;;;;;;17.20;100.00;100554.72;4917489;29;20047;-79
2023/07/01 00:30:02;;;;;;;4.68;2.10;;;;;;;17.17;100.00;100549.47;4912233;28;20051;-77
2023/07/01 00:32:30;;;;;;;6.05;1.80;;;;;;;17.18;100.00;100550.31;4929072;29;20063;-79
2023/07/01 00:34:58;;;;;;;7.82;2.28;;;;;;;17.17;100.00;100549.47;4919188;29;20422;-78
2023/07/01 00:37:25;;;;;;;2.30;1.88;;;;;;;17.18;100.00;100542.34;4946062;28;20051;-79
2023/07/01 00:39:52;;;;;;;4.40;1.80;;;;;;;17.19;100.00;100538.78;4958208;28;20047;-78
2023/07/01 00:42:20;;;;;;;3.65;1.75;;;;;;;17.20;100.00;100535.19;4962216;28;20055;-78
2023/07/01 00:44:48;;;;;;;6.22;2.00;;;;;;;17.21;100.00;100531.63;4949554;29;20055;-78
2023/07/01 00:47:16;;;;;;;5.45;1.70;;;;;;;17.22;100.00;100533.34;4926085;28;20054;-78
2023/07/01 00:49:45;;;;;;;10.68;2.63;;;;;;;17.23;100.00;100524.44;4965543;28;20055;-78
2023/07/01 00:52:13;;;;;;;6.35;2.00;;;;;;;17.22;100.00;100520.03;4958697;28;20487;-79
2023/07/01 00:54:43;;;;;;;3.50;1.90;;;;;;;17.23;100.00;100522.66;4964871;28;20055;-80
2023/07/01 00:57:12;;;;;;;4.45;2.33;;;;;;;17.22;100.00;100517.38;4940318;28;20051;-79
2023/07/01 00:59:40;;;;;;;6.28;2.20;;;;;;;17.22;100.00;100501.38;4916956;29;20681;-78
2023/07/01 01:02:19;;;;;;;4.95;2.40;;;;;;;17.21;100.00;100505.84;4909554;28;20499;-79
2023/07/01 01:05:10;;;;;;;5.07;2.47;;;;;;;17.20;100.00;100495.25;4925957;29;20400;-79
2023/07/01 01:07:52;;;;;;;3.75;1.70;;;;;;;17.20;100.00;100495.25;4957168;28;20051;-79
2023/07/01 01:10:24;;;;;;;3.72;1.70;;;;;;;17.20;100.00;100485.50;4939634;28;20047;-79
2023/07/01 01:12:58;;;;;;;7.53;1.95;;;;;;;17.20;100.00;100479.25;4946350;28;20461;-78
2023/07/01 01:15:27;;;;;;;3.42;1.67;;;;;;;17.20;100.00;100471.28;4924666;29;20047;-79
2023/07/01 01:18:05;;;;;;;5.78;1.88;;;;;;;17.21;100.00;100476.56;4912411;28;20061;-79
2023/07/01 01:20:36;;;;;;;5.43;1.92;;;;;;;17.20;100.00;100464.19;4932959;29;20439;-79
2023/07/01 01:23:13;;;;;;;5.93;2.53;;;;;;;17.21;100.00;100463.25;4945195;28;20036;-79
2023/07/01 01:25:52;;;;;;;4.25;1.73;;;;;;;17.22;100.00;100456.13;4945343;28;20054;-79
2023/07/01 01:28:21;;;;;;;5.15;2.08;;;;;;;17.20;100.00;100453.53;4924483;28;20062;-80
2023/07/01 01:30:48;;;;;;;5.88;2.33;;;;;;;17.19;100.00;100451.78;4946549;29;20054;-79
2023/07/01 01:33:16;;;;;;;5.25;1.90;;;;;;;17.19;100.00;100446.44;4906976;28;20054;-79
2023/07/01 01:35:44;;;;;;;6.63;1.98;;;;;;;17.19;100.00;100442.94;4932898;29;20051;-78
2023/07/01 01:38:20;;;;;;;3.75;1.70;;;;;;;17.18;100.00;100443.84;4911009;29;20051;-78
2023/07/01 01:41:17;;;;;;;5.22;1.75;;;;;;;17.18;100.00;100436.72;4941058;29;20060;-78
2023/07/01 01:44:22;;;;;;;6.05;1.88;;;;;;;17.17;100.00;100427.00;4937010;28;20059;-79
2023/07/01 01:46:49;;;;;;;4.75;2.17;;;;;;;17.17;100.00;100434.97;4918332;29;20066;-78
2023/07/01 01:49:19;;;;;;;6.80;1.85;;;;;;;17.18;100.00;100433.19;4912511;28;20051;-78
2023/07/01 01:51:47;;;;;;;5.22;2.03;;;;;;;17.15;100.00;100427.03;4969193;28;20051;-78
2023/07/01 01:54:16;;;;;;;5.70;1.83;;;;;;;17.11;100.00;100417.41;4943921;28;20058;-79
2023/07/01 01:56:43;;;;;;;4.93;2.35;;;;;;;17.10;100.00;100414.78;4948422;29;20062;-78
2023/07/01 01:59:11;;;;;;;7.25;2.35;;;;;;;17.05;100.00;100414.94;4952707;28;20050;-78
2023/07/01 02:01:39;;;;;;;3.65;1.90;;;;;;;16.97;100.00;100413.41;4933616;29;20051;-77
2023/07/01 02:04:06;;;;;;;4.47;2.17;;;;;;;16.88;100.00;100414.56;4924136;28;20048;-79
2023/07/01 02:06:34;;;;;;;5.95;2.25;;;;;;;16.78;100.00;100413.91;4951478;29;20734;-79
2023/07/01 02:09:04;;;;;;;7.82;2.53;;;;;;;16.71;100.00;100407.94;4929012;29;20065;-78
2023/07/01 02:11:31;;;;;;;4.20;2.47;;;;;;;16.67;100.00;100408.03;4950507;29;20059;-78
2023/07/01 02:13:59;;;;;;;6.18;2.33;;;;;;;16.62;100.00;100405.53;4930211;29;20039;-78
2023/07/01 02:16:27;;;;;;;7.57;2.38;;;;;;;16.56;100.00;100397.72;4941389;28;20062;-78
2023/07/01 02:18:54;;;;;;;3.92;2.00;;;;;;;16.48;100.00;100399.72;4978725;28;20495;-78
2023/07/01 02:21:22;;;;;;;6.88;2.83;;;;;;;16.42;100.00;100389.25;4927123;28;20055;-78
2023/07/01 02:23:49;;;;;;;5.30;2.58;;;;;;;16.36;100.00;100396.50;4936538;29;20059;-78
2023/07/01 02:26:16;;;;;;;9.13;2.70;;;;;;;16.29;100.00;100396.69;4956208;28;20469;-78
2023/07/01 02:28:44;;;;;;;6.15;3.03;;;;;;;16.23;100.00;100395.09;4945813;28;20047;-78
2023/07/01 02:31:16;;;;;;;9.45;3.15;;;;;;;16.18;100.00;100389.91;4942783;28;20050;-79
2023/07/01 02:33:44;;;;;;;8.32;3.00;;;;;;;16.12;100.00;100384.75;4935989;29;20059;-78
2023/07/01 02:36:12;;;;;;;7.35;2.70;;;;;;;16.08;100.00;100377.75;4883076;29;20051;-78
2023/07/01 02:38:39;;;;;;;9.82;2.83;;;;;;;16.03;100.00;100368.16;4935641;29;20062;-78
2023/07/01 02:41:07;;;;;;;5.45;3.20;;;;;;;16.00;100.00;100370.94;4942949;28;20043;-78
2023/07/01 02:43:35;;;;;;;7.60;2.75;;;;;;;15.96;100.00;100363.03;4952817;29;20674;-78
2023/07/01 02:46:03;;;;;;;4.63;2.60;;;;;;;15.94;100.00;100350.72;4961161;28;20043;-78
2023/07/01 02:48:30;;;;;;;5.80;2.90;;;;;;;15.94;100.00;100345.41;4962079;28;20051;-78
2023/07/01 02:50:58;;;;;;;5.75;2.90;;;;;;;15.91;100.00;100343.66;4926287;28;20777;-78
2023/07/01 02:53:26;;;;;;;5.40;3.20;;;;;;;15.90;100.00;100341.94;4917717;29;20043;-79
2023/07/01 02:55:53;;;;;;;6.05;3.08;;;;;;;15.90;100.00;100335.75;4935587;29;20062;-78
2023/07/01 02:58:22;;;;;;;6.65;2.90;;;;;;;15.88;100.00;100343.78;4964987;28;20047;-78
2023/07/01 03:00:49;;;;;;;8.20;3.67;;;;;;;15.88;100.00;100340.22;4930945;29;20070;-78
2023/07/01 03:03:17;;;;;;;7.78;3.10;;;;;;;15.87;100.00;100330.53;4965467;28;20058;-78
2023/07/01 03:05:45;;;;;;;5.78;3.13;;;;;;;15.86;100.00;100334.06;4884923;29;20051;-78
2023/07/01 03:08:13;;;;;;;6.93;3.22;;;;;;;15.86;100.00;100336.72;4966304;28;20055;-78
2023/07/01 03:10:40;;;;;;;6.32;2.90;;;;;;;15.86;100.00;100328.75;4951051;29;20055;-77
2023/07/01 03:13:07;;;;;;;6.78;3.20;;;;;;;15.85;100.00;100332.34;4954902;28;20051;-80
2023/07/01 03:15:35;;;;;;;9.80;2.90;;;;;;;15.84;100.00;100319.97;4966794;28;20039;-78
2023/07/01 03:18:03;;;;;;;5.20;3.17;;;;;;;15.87;100.00;100327.88;4926638;29;20058;-78
2023/07/01 03:20:30;;;;;;;5.55;3.72;;;;;;;15.87;100.00;100328.72;4933279;29;20554;-78
2023/07/01 03:22:58;;;;;;;7.07;3.67;;;;;;;15.87;100.00;100328.72;4929279;28;20051;-79
2023/07/01 03:25:26;;;;;;;7.25;3.38;;;;;;;15.90;100.00;100319.81;4963695;28;20051;-78
2023/07/01 03:27:54;;;;;;;5.40;3.45;;;;;;;15.91;100.00;100314.44;4912461;29;20062;-80
2023/07/01 03:30:29;;;;;;;7.80;3.97;;;;;;;15.93;100.00;100314.41;4980429;28;20077;-78
2023/07/01 03:32:58;;;;;;;6.40;3.63;;;;;;;15.94;100.00;100310.84;4935395;28;20054;-78
2023/07/01 03:35:25;;;;;;;7.53;3.42;;;;;;;15.96;100.00;100306.34;4938957;28;20043;-78
2023/07/01 03:37:53;;;;;;;6.70;3.35;;;;;;;16.00;100.00;100305.34;4914197;28;20047;-78
2023/07/01 03:40:20;;;;;;;5.68;3.13;;;;;;;16.01;100.00;100298.25;4930347;29;20054;-78
2023/07/01 03:42:48;;;;;;;4.68;3.35;;;;;;;16.03;100.00;100292.00;4943725;28;20047;-78
2023/07/01 03:45:17;;;;;;;6.35;3.25;;;;;;;16.05;100.00;100286.59;4916904;29;20054;-80
2023/07/01 03:47:45;;;;;;;4.07;3.28;;;;;;;16.05;100.00;100282.19;4960720;28;20521;-79
2023/07/01 03:50:13;;;;;;;10.95;3.00;;;;;;;16.05;100.00;100287.50;4946209;28;20491;-79
2023/07/01 03:52:42;;;;;;;3.72;3.20;;;;;;;16.05;100.00;100279.53;4950480;29;20490;-79
2023/07/01 03:55:11;;;;;;;8.48;3.28;;;;;;;16.06;100.00;100285.72;4895553;29;20418;-78
2023/07/01 03:57:38;;;;;;;6.75;3.30;;;;;;;16.06;100.00;100273.28;4950509;29;20043;-78
2023/07/01 04:00:17;;;;;;;6.07;3.00;;;;;;;16.04;100.00;100276.91;4957559;28;20047;-78
2023/07/01 04:02:49;;;;;;;4.80;3.05;;;;;;;16.05;100.00;100275.97;4959943;28;20067;-78
2023/07/01 04:05:18;;;;;;;6.22;2.90;;;;;;;16.06;100.00;100272.41;4952804;28;20058;-78
2023/07/01 04:07:48;;;;;;;4.00;3.45;;;;;;;16.06;100.00;100265.31;4926898;29;20048;-78
2023/07/01 04:10:16;;;;;;;5.93;3.13;;;;;;;16.08;100.00;100265.28;4899027;28;20048;-79
2023/07/01 04:12:44;;;;;;;7.55;3.15;;;;;;;16.09;100.00;100256.41;4977183;28;20058;-80
2023/07/01 04:15:11;;;;;;;4.32;2.85;;;;;;;16.10;100.00;100248.34;4930030;28;20043;-79
2023/07/01 04:17:45;;;;;;;4.82;2.90;;;;;;;16.11;100.00;100251.91;4981603;28;20043;-79
2023/07/01 04:20:15;;;;;;;5.18;3.10;;;;;;;16.06;100.00;100252.03;4930048;28;20116;-79
2023/07/01 04:22:43;;;;;;;3.67;3.03;;;;;;;16.04;100.00;100247.69;4950978;28;20043;-78
2023/07/01 04:25:11;;;;;;;3.92;3.00;;;;;;;16.02;100.00;100253.03;4939168;28;20047;-80
2023/07/01 04:27:42;;;;;;;8.88;3.53;;;;;;;16.00;100.00;100252.22;4948509;29;20074;-78
2023/07/01 04:30:12;;;;;;;4.13;2.60;;;;;;;15.98;100.00;100249.59;4957339;28;20410;-78
2023/07/01 04:32:40;;;;;;;5.80;3.15;;;;;;;15.96;100.00;100242.59;4949681;28;20426;-79
2023/07/01 04:35:09;;;;;;;6.80;2.92;;;;;;;15.93;100.00;100243.53;4944846;28;20047;-79
2023/07/01 04:37:36;;;;;;;4.82;2.83;;;;;;;15.94;100.00;100239.09;4925968;29;20549;-78
2023/07/01 04:40:05;;;;;;;9.57;3.13;;;;;;;15.95;100.00;100238.19;4942938;28;20047;-79
2023/07/01 04:42:34;;;;;;;6.43;2.92;;;;;;;15.95;100.00;100244.38;4946779;28;20050;-78
2023/07/01 04:45:02;;;;;;;3.88;2.80;;;;;;;15.96;100.00;100238.13;4928284;28;20044;-79
2023/07/01 04:47:29;;;;;;;4.85;3.00;;;;;;;15.97;100.00;100242.56;4942863;28;20488;-78
2023/07/01 04:49:58;;;;;;;6.25;2.53;;;;;;;16.00;100.00;100230.94;4947592;28;20062;-80
2023/07/01 04:52:25;;;;;;;6.45;3.13;;;;;;;16.00;100.00;100235.41;4923015;28;23167;-79
2023/07/01 04:54:52;;;;;;;4.40;3.17;;;;;;;16.01;100.00;100234.47;4924173;28;20073;-78
2023/07/01 04:57:20;;;;;;;4.95;2.90;;;;;;;16.02;100.00;100223.81;4881608;29;20062;-78
2023/07/01 04:59:48;;;;;;;6.75;3.00;;;;;;;16.02;100.00;100226.47;4953016;29;20051;-78
2023/07/01 05:02:15;;;;;;;26.15;4.35;;;;;;;16.04;100.00;100224.63;4940537;28;20056;-79
2023/07/01 05:04:44;;;;;;;4.57;2.85;;;;;;;16.05;100.00;100225.50;4938611;28;20058;-79
2023/07/01 05:07:12;;;;;;;5.35;2.85;;;;;;;16.07;100.00;100219.22;4903174;28;20419;-80
2023/07/01 05:09:39;;;;;;;4.80;2.92;;;;;;;16.07;100.00;100202.41;4924829;28;20055;-77
2023/07/01 05:12:07;;;;;;;6.35;3.17;;;;;;;16.06;100.00;100201.53;4882661;29;20051;-79
2023/07/01 05:14:34;;;;;;;4.40;3.15;;;;;;;16.08;100.00;100215.63;4931933;29;20047;-78
2023/07/01 05:17:04;;;;;;;4.97;3.42;;;;;;;16.10;100.00;100203.16;4924729;29;20495;-79
2023/07/01 05:19:31;;;;;;;4.50;2.95;;;;;;;16.11;100.00;100202.28;4931511;29;20051;-78
2023/07/01 05:22:00;;;;;;;6.45;3.30;;;;;;;16.13;100.00;100195.13;4897408;28;20055;-78
2023/07/01 05:24:27;;;;;;;6.45;3.65;;;;;;;16.14;100.00;100199.53;4922092;28;20055;-78
2023/07/01 05:26:55;;;;;;;8.25;3.47;;;;;;;16.15;100.00;100208.38;4933251;29;20047;-79
2023/07/01 05:29:24;;;;;;;4.43;3.47;;;;;;;16.16;100.00;100196.81;4914763;28;20054;-78
2023/07/01 05:31:52;;;;;;;3.95;3.47;;;;;;;16.17;100.00;100203.88;4941797;28;20058;-78
2023/07/01 05:34:23;;;;;;;5.97;3.30;;;;;;;16.17;100.00;100206.53;4947547;29;20047;-78
2023/07/01 05:36:51;;;;;;;4.80;3.15;;;;;;;16.20;100.00;100201.13;4932191;28;20409;-78
2023/07/01 05:39:18;;;;;;;6.07;2.97;;;;;;;16.20;100.00;100194.94;4922174;29;20071;-79
2023/07/01 05:41:45;;;;;;;5.25;3.67;;;;;;;16.19;100.00;100202.03;4960869;28;20506;-79
2023/07/01 05:44:13;;;;;;;8.07;3.90;;;;;;;16.19;100.00;100204.69;4909012;28;20055;-78
2023/07/01 05:46:41;;;;;;;6.38;2.83;;;;;;;16.20;100.00;100202.91;4926125;28;20050;-78
2023/07/01 05:49:08;;;;;;;5.18;3.83;;;;;;;16.21;100.00;100200.19;4943763;29;20059;-79
2023/07/01 05:51:37;;;;;;;4.55;3.47;;;;;;;16.22;100.00;100195.75;4942368;28;20066;-79
2023/07/01 05:54:04;;;;;;;6.03;3.38;;;;;;;16.21;100.00;100200.19;4909193;29;20391;-77
2023/07/01 05:56:32;;;;;;;7.00;4.00;;;;;;;16.21;100.00;100197.53;4926343;28;20051;-78
2023/07/01 05:58:59;;;;;;;4.53;3.60;;;;;;;16.22;100.00;100201.97;4898157;29;20430;-78
2023/07/01 06:01:28;;;;;;;7.55;3.92;;;;;;;16.20;100.00;100187.84;4931004;29;20055;-78
2023/07/01 06:03:56;;;;;;;4.40;3.25;;;;;;;16.22;100.00;100193.97;4941592;28;20055;-78
2023/07/01 06:06:24;;;;;;;6.05;3.60;;;;;;;16.24;100.00;100193.91;4963928;28;20043;-78
2023/07/01 06:08:51;;;;;;;5.43;3.60;;;;;;;16.26;100.00;100187.66;4922906;29;20406;-78
2023/07/01 06:11:19;;;;;;;9.75;3.75;;;;;;;16.28;100.00;100184.94;4930904;29;20051;-78
2023/07/01 06:13:50;;;;;;;6.15;3.80;;;;;;;16.28;100.00;100183.16;4909505;28;20054;-79
2023/07/01 06:16:17;;;;;;;5.50;3.50;;;;;;;16.32;100.00;100182.13;4930945;29;20553;-79
2023/07/01 06:18:45;;;;;;;7.28;4.00;;;;;;;16.33;100.00;100183.00;4925685;28;20396;-79
2023/07/01 06:21:12;;;;;;;7.40;3.75;;;;;;;16.35;100.00;100182.06;4930572;29;20043;-78
2023/07/01 06:23:39;;;;;;;8.30;3.95;;;;;;;16.37;100.00;100179.34;4953314;28;20189;-78
2023/07/01 06:26:07;;;;;;;6.95;3.80;;;;;;;16.38;100.00;100181.94;4913545;29;20051;-78
2023/07/01 06:28:37;;;;;;;6.10;3.67;;;;;;;16.41;100.00;100174.78;4941038;28;20062;-78
2023/07/01 06:31:04;;;;;;;6.25;4.13;;;;;;;16.42;100.00;100174.72;4912552;28;20051;-78
2023/07/01 06:33:37;;;;;;;9.40;4.53;;;;;;;16.42;100.00;100176.53;4930175;28;20856;-78
2023/07/01 06:36:06;;;;;;;6.30;3.58;;;;;;;16.42;100.00;100180.06;4957883;28;20051;-78
2023/07/01 06:38:34;;;;;;;8.68;4.03;;;;;;;16.41;100.00;100185.41;4946200;28;20043;-78
2023/07/01 06:41:02;;;;;;;8.30;4.57;;;;;;;16.42;100.00;100182.72;4917111;28;20062;-79
2023/07/01 06:43:29;;;;;;;6.72;4.38;;;;;;;16.43;100.00;100175.63;4963575;28;20058;-78
2023/07/01 06:45:57;;;;;;;5.70;4.35;;;;;;;16.40;100.00;100183.69;4917455;28;20044;-79
2023/07/01 06:48:25;;;;;;;7.97;4.68;;;;;;;16.36;100.00;100173.13;4948715;28;20062;-78
2023/07/01 06:50:52;;;;;;;8.55;5.05;;;;;;;16.32;100.00;100174.16;4939804;28;20054;-79
2023/07/01 06:53:20;;;;;;;11.90;5.35;;;;;;;16.29;100.00;100176.91;4954021;28;20059;-79
2023/07/01 06:55:47;;;;;;;11.20;5.05;;;;;;;16.26;100.00;100168.19;4954474;28;20042;-78
2023/07/01 06:58:16;;;;;;;8.95;4.85;;;;;;;16.23;100.00;100170.91;4911682;28;20088;-78
2023/07/01 07:00:43;;;;;;;10.65;5.15;;;;;;;16.23;100.00;100166.47;4907826;28;20055;-79
2023/07/01 07:03:11;;;;;;;9.98;5.32;;;;;;;16.24;100.00;100160.25;4949101;28;20062;-78
2023/07/01 07:05:39;;;;;;;6.50;4.80;;;;;;;16.25;100.00;100158.44;4956642;28;20047;-79
2023/07/01 07:08:06;;;;;;;6.85;4.95;;;;;;;16.23;100.00;100161.16;4965049;28;20047;-78
2023/07/01 07:10:34;;;;;;;7.15;4.82;;;;;;;16.23;100.00;100155.84;4922497;28;20520;-78
2023/07/01 07:13:03;;;;;;;6.72;5.32;;;;;;;16.25;100.00;100154.00;4968109;28;20094;-80
2023/07/01 07:15:30;;;;;;;5.93;4.88;;;;;;;16.27;100.00;100160.13;4879353;28;20058;-78
2023/07/01 07:17:59;;;;;;;7.22;5.32;;;;;;;16.30;100.00;100157.38;4967281;28;20055;-78
2023/07/01 07:20:28;;;;;;;7.15;5.05;;;;;;;16.32;100.00;100168.84;4956821;28;20465;-78
2023/07/01 07:22:55;;;;;;;5.53;5.03;;;;;;;16.35;100.00;100152.81;4955341;28;20066;-78
2023/07/01 07:25:23;;;;;;;6.93;4.95;;;;;;;16.33;100.00;100167.94;4943178;28;20051;-80
2023/07/01 07:27:50;;;;;;;6.60;5.15;;;;;;;16.36;100.00;100156.31;4958312;28;20067;-80
2023/07/01 07:30:18;;;;;;;7.30;4.97;;;;;;;16.34;100.00;100158.16;4939180;28;20047;-79
2023/07/01 07:32:45;;;;;;;7.18;5.10;;;;;;;16.30;100.00;100160.03;4899319;29;20059;-78
2023/07/01 07:35:13;;;;;;;6.65;5.18;;;;;;;16.30;100.00;100162.69;4912389;29;20054;-79
2023/07/01 07:37:41;;;;;;;5.90;4.75;;;;;;;16.30;100.00;100157.38;4933557;29;20533;-82
2023/07/01 07:40:10;;;;;;;8.30;5.50;;;;;;;16.33;100.00;100159.97;4934808;28;20487;-81
2023/07/01 07:42:37;;;;;;;6.75;4.85;;;;;;;16.31;100.00;100158.25;4942928;28;20125;-80
2023/07/01 07:45:05;;;;;;;7.40;5.55;;;;;;;16.31;100.00;100148.50;4947504;28;20062;-79
2023/07/01 07:47:34;;;;;;;7.55;5.43;;;;;;;16.33;100.00;100149.31;4915206;28;20059;-80
2023/07/01 07:50:02;;;;;;;5.40;4.90;;;;;;;16.35;100.00;100143.94;4972611;28;20047;-80
2023/07/01 07:52:29;;;;;;;7.93;5.05;;;;;;;16.39;100.00;100156.25;4934509;29;20062;-81
2023/07/01 07:54:57;;;;;;;5.28;4.88;;;;;;;16.45;100.00;100155.19;4945771;28;20058;-81
2023/07/01 07:57:25;;;;;;;5.70;5.20;;;;;;;16.48;100.00;100145.31;4936623;28;20632;-81
2023/07/01 07:59:53;;;;;;;6.55;5.25;;;;;;;16.49;100.00;100147.03;4976088;28;20063;-81
2023/07/01 08:02:21;;;;;;;5.97;5.28;;;;;;;16.51;100.00;100149.66;4912745;28;20074;-81
2023/07/01 08:04:49;;;;;;;6.50;4.88;;;;;;;16.52;100.00;100141.63;4891611;28;20185;-81
2023/07/01 08:07:17;;;;;;;5.47;4.90;;;;;;;16.55;100.00;100143.31;4933390;29;20492;-81
2023/07/01 08:09:44;;;;;;;5.45;4.95;;;;;;;16.55;100.00;100144.16;4963503;28;20059;-81
2023/07/01 08:12:11;;;;;;;5.20;4.68;;;;;;;16.59;100.00;100146.72;4957557;28;20055;-81
2023/07/01 08:14:39;;;;;;;5.63;5.10;;;;;;;16.64;100.00;100140.34;4942714;28;20505;-80
2023/07/01 08:17:07;;;;;;;7.88;5.60;;;;;;;16.68;100.00;100144.63;4944275;28;20038;-80
2023/07/01 08:19:34;;;;;;;5.03;4.55;;;;;;;16.75;100.00;100140.84;4907569;28;20060;-80
2023/07/01 08:22:02;;;;;;;6.63;4.65;;;;;;;16.81;100.00;100138.91;4947274;28;20031;-80
2023/07/01 08:24:30;;;;;;;5.22;4.72;;;;;;;16.86;100.00;100136.97;4922666;29;20525;-81
2023/07/01 08:26:59;;;;;;;5.88;5.38;;;;;;;16.91;100.00;100143.03;4964611;28;20050;-79
2023/07/01 08:29:27;;;;;;;4.82;4.22;;;;;;;16.98;100.00;100133.06;4942656;28;20066;-81
2023/07/01 08:31:54;;;;;;;5.93;4.53;;;;;;;17.03;100.00;100133.75;4928314;28;20637;-82
2023/07/01 08:34:22;;;;;;;4.22;3.58;;;;;;;17.05;100.00;100135.44;4897023;29;20070;-80
2023/07/01 08:36:50;;;;;;;4.57;4.25;;;;;;;17.06;100.00;100131.84;4908161;29;20446;-81
2023/07/01 08:39:18;;;;;;;4.35;3.95;;;;;;;17.06;100.00;100131.84;4948622;29;20051;-78
2023/07/01 08:41:59;;;;;;;4.30;4.00;;;;;;;17.05;100.00;100130.13;4935448;28;20065;-77
2023/07/01 08:44:26;;;;;;;7.13;3.85;;;;;;;17.11;100.00;100135.22;4943072;28;20043;-76
2023/07/01 08:46:55;;;;;;;4.47;3.90;;;;;;;17.19;100.00;100129.63;4971800;28;20046;-79
2023/07/01 08:49:25;;;;;;;4.75;3.88;;;;;;;17.25;100.00;100128.53;4906062;28;20063;-79
2023/07/01 08:52:09;;;;;;;4.38;3.97;;;;;;;17.28;100.00;100133.75;4927661;28;20055;-78
2023/07/01 08:54:38;;;;;;;4.18;3.88;;;;;;;17.30;100.00;100127.44;4940215;29;20426;-79
2023/07/01 08:57:08;;;;;;;4.80;4.45;;;;;;;17.31;100.00;100136.28;4962474;28;20047;-78
2023/07/01 08:59:36;;;;;;;5.32;4.93;;;;;;;17.35;100.00;100129.94;4925626;28;20051;-78
2023/07/01 09:02:04;;;;;;;5.35;4.85;;;;;;;17.39;100.00;100128.94;4926653;28;20051;-78
2023/07/01 09:04:32;;;;;;;5.25;4.75;;;;;;;17.42;100.00;100128.78;4894418;28;20051;-77
2023/07/01 09:06:59;;;;;;;5.22;4.75;;;;;;;17.47;100.00;100133.97;4929059;28;20047;-78
2023/07/01 09:09:27;;;;;;;5.32;4.90;;;;;;;17.49;100.00;100135.63;4963112;28;20054;-77
2023/07/01 09:11:54;;;;;;;5.35;4.95;;;;;;;17.48;100.00;100136.53;4968693;28;20577;-78
2023/07/01 09:14:22;;;;;;;6.30;4.97;;;;;;;17.51;100.00;100127.59;4903132;28;20917;-77
2023/07/01 09:16:49;;;;;;;5.68;5.28;;;;;;;17.52;100.00;100135.53;4968045;28;20077;-77
2023/07/01 09:19:18;;;;;;;4.88;4.45;;;;;;;17.54;100.00;100132.78;4950428;28;20062;-77
2023/07/01 09:21:45;;;;;;;4.90;4.40;;;;;;;17.57;100.00;100126.50;4884504;28;20059;-77
2023/07/01 09:24:12;;;;;;;6.97;4.15;;;;;;;17.59;100.00;100125.50;4928489;28;20059;-79
2023/07/01 09:26:40;;;;;;;4.13;3.83;;;;;;;17.62;100.00;100125.41;4944180;29;20507;-78
2023/07/01 09:29:10;;;;;;;6.30;4.18;;;;;;;17.68;100.00;100121.63;4908999;28;20059;-77
2023/07/01 09:31:49;;;;;;;4.78;3.88;;;;;;;17.71;100.00;100129.50;4929993;28;20051;-77
2023/07/01 09:34:17;;;;;;;4.40;4.00;;;;;;;17.74;100.00;100132.06;4928918;28;20062;-77
2023/07/01 09:36:45;;;;;;;4.30;3.90;;;;;;;17.75;100.00;100120.50;4887401;28;20495;-78
2023/07/01 09:39:12;;;;;;;3.88;3.58;;;;;;;17.76;100.00;100119.53;4926716;28;20060;-79
2023/07/01 09:41:39;;;;;;;4.28;3.85;;;;;;;17.81;100.00;100127.38;4900922;28;20048;-78
2023/07/01 09:44:16;;;;;;;4.22;3.83;;;;;;;17.81;100.00;100112.25;4927232;28;20058;-77
2023/07/01 09:46:50;;;;;;;4.13;3.83;;;;;;;17.82;100.00;100116.63;4911748;28;20051;-77
2023/07/01 09:49:18;;;;;;;4.30;4.00;;;;;;;17.83;100.00;100117.53;4940928;29;20542;-77
2023/07/01 09:51:48;;;;;;;3.97;3.67;;;;;;;17.85;100.00;100113.91;4925210;28;20070;-77
2023/07/01 09:54:26;;;;;;;3.72;3.42;;;;;;;17.87;100.00;100113.84;4951889;28;20047;-77
2023/07/01 09:56:58;;;;;;;4.13;3.83;;;;;;;17.87;100.00;100109.38;4924858;28;20051;-76
2023/07/01 09:59:27;;;;;;;4.63;4.32;;;;;;;17.87;100.00;100111.19;4935738;28;20047;-77
2023/07/01 10:01:56;;;;;;;4.30;4.00;;;;;;;17.90;100.00;100113.72;4913111;29;20528;-77
2023/07/01 10:04:28;;;;;;;4.00;3.70;;;;;;;17.92;100.00;100106.53;4954290;28;20250;-77
2023/07/01 10:06:56;;;;;;;4.38;4.07;;;;;;;17.97;100.00;100115.22;4909681;28;20047;-77
2023/07/01 10:09:26;;;;;;;4.47;4.18;;;;;;;17.98;100.00;100116.97;4925350;29;20047;-77
2023/07/01 10:11:58;;;;;;;5.03;4.63;;;;;;;18.02;100.00;100112.38;4937505;28;20051;-76
2023/07/01 10:14:28;;;;;;;4.97;4.63;;;;;;;18.04;100.00;100098.06;4930522;28;20054;-76
2023/07/01 10:16:56;;;;;;;4.90;4.50;;;;;;;18.10;100.00;100099.59;4936255;28;20047;-77
2023/07/01 10:19:46;;;;;;;5.30;4.80;;;;;;;18.14;100.00;100097.69;4905682;29;20051;-76
2023/07/01 10:22:31;;;;;;;5.00;4.63;;;;;;;18.18;100.00;100102.81;4943932;29;20066;-78
2023/07/01 10:25:03;;;;;;;4.47;4.18;;;;;;;18.20;100.00;100095.63;4928816;28;20051;-78
2023/07/01 10:27:40;;;;;;;3.95;3.60;;;;;;;18.19;100.00;100093.91;4937117;28;20051;-79
2023/07/01 10:30:09;;;;;;;5.15;4.07;;;;;;;18.21;100.00;100096.53;4926157;29;20063;-77
2023/07/01 10:32:36;;;;;;;4.75;4.38;;;;;;;18.22;100.00;100100.91;4935956;28;20059;-78
2023/07/01 10:35:05;;;;;;;4.47;4.18;;;;;;;18.25;100.00;100106.97;4897948;28;20928;-79
2023/07/01 10:37:34;;;;;;;4.82;4.43;;;;;;;18.25;100.00;100109.66;4928046;28;20052;-79
2023/07/01 10:40:23;;;;;;;4.72;4.43;;;;;;;18.23;100.00;100114.19;4885025;28;20415;-78
2023/07/01 10:42:51;;;;;;;6.82;5.07;;;;;;;18.17;100.00;100113.56;4927545;28;20056;-78
2023/07/01 10:45:39;;;;;;;4.50;4.15;;;;;;;18.09;100.00;100117.41;4935070;28;20703;-78
2023/07/01 10:48:06;;;;;;;5.63;3.75;;;;;;;18.06;100.00;100111.31;4932203;28;20066;-78
2023/07/01 10:51:20;;;;;;;4.00;3.70;;;;;;;18.05;100.00;100118.47;4943594;28;20534;-78
2023/07/01 10:54:07;;;;;;;3.83;3.42;;;;;;;18.08;100.00;100107.66;4939172;28;20059;-78
2023/07/01 10:56:38;;;;;;;3.80;3.50;;;;;;;18.15;100.00;100102.06;4940970;28;20051;-77
2023/07/01 10:59:22;;;;;;;3.38;3.08;;;;;;;18.27;100.00;100102.47;4913416;28;20051;-78
2023/07/01 11:01:52;;;;;;;3.42;3.17;;;;;;;18.39;100.00;100108.22;4934666;28;20418;-78
2023/07/01 11:04:23;;;;;;;5.07;2.90;;;;;;;18.48;100.00;100097.19;4941590;28;20050;-78
2023/07/01 11:06:52;;;;;;;3.53;3.10;;;;;;;18.57;100.00;100101.28;4955680;28;20051;-77
2023/07/01 11:09:35;;;;;;;4.30;3.20;;;;;;;18.63;100.00;100101.88;4894084;28;22148;-76
2023/07/01 11:12:07;;;;;;;3.50;3.20;;;;;;;18.64;100.00;100100.09;4918148;29;20295;-77
2023/07/01 11:14:37;;;;;;;4.15;3.60;;;;;;;18.61;100.00;100095.72;4915150;28;20047;-78
2023/07/01 11:17:06;;;;;;;5.55;4.32;;;;;;;18.56;100.00;100103.06;4938592;28;20050;-78
2023/07/01 11:19:34;;;;;;;4.35;3.70;;;;;;;18.51;100.00;100105.06;4932658;28;20043;-80
2023/07/01 11:22:02;;;;;;;3.72;3.42;;;;;;;18.48;100.00;100110.50;4974701;28;20051;-78
2023/07/01 11:24:30;;;;;;;4.80;4.30;;;;;;;18.46;100.00;100107.91;4920202;28;20043;-81
2023/07/01 11:27:03;;;;;;;4.88;4.35;;;;;;;18.38;100.00;100098.50;4968878;28;20043;-82